Current | Forecast
Updated: 7:30 AM EEST on April 30, 2017
Observed at Odessa, Republic of Moldova
Temperature 11°C
Humidity 88%
Dew Point 9°C
Wind North at 0 km/h
Pressure 1015 hPa (Steady)
Conditions Clear
Visibility -
UV N/A
Clouds
Yesterday's Maximum 17°C
Yesterday's Minimum 6°C approx.
Yesterday's Heating Degree Days 12 approx.
Sunrise5:48 AM EEST
Sunset8:08 PM EEST
Moon Rise9:13 AM EEST
Moon Set
Moon PhaseMoon Phase
Waxing Crescent
Raw METARMETAR UKOO 300430Z 00000MPS CAVOK 11/09 Q1015 R16/090060 NOSIG


Monday
. High: 62° F.
Tuesday
. High: 68° F.
Wednesday
. High: 68° F.
Thursday
. High: 69° F.
Friday
. High: 66° F.
Saturday
. High: 57° F.
Sunday
. High: 64° F.
Monday
. High: 69° F.

Units: English | Metric

Find the Weather for any City, State or Zipcode, or Country:

U.S. State List | Severe Weather | Tropical Storms | Ski Conditions
United States | Canada | Central America | South America | Asia | Europe | Australia | Africa | Islands

Weather Underground

© Copyright 2017
The Weather Company, LLC